Time;durP1;ratioP1;P1;durP2;ratioP2;P2;SDS_P1;SDS_P2;PMS_P1;PMS_P2;Temp;Humidity;BMP_temperature;BMP_pressure;BME280_temperature;BME280_humidity;BME280_pressure;Samples;Min_cycle;Max_cycle;Signal;HPM_P1;HPM_P2
2021/12/25 00:02:51;;;;;;;18.52;8.43;;;11.30;99.90;;;;;;5030350;28;20500;-75
2021/12/25 00:05:55;;;;;;;17.20;8.48;;;11.30;99.90;;;;;;5030394;28;20052;-75
2021/12/25 00:08:59;;;;;;;15.30;6.95;;;11.30;99.90;;;;;;5030031;28;20057;-75
2021/12/25 00:12:03;;;;;;;14.95;6.63;;;11.30;99.90;;;;;;5030231;28;20045;-76
2021/12/25 00:15:07;;;;;;;13.90;6.57;;;11.40;99.90;;;;;;5030285;28;20452;-76
2021/12/25 00:18:11;;;;;;;16.35;7.13;;;11.50;99.90;;;;;;5029664;28;20040;-74
2021/12/25 00:21:16;;;;;;;14.73;7.35;;;11.40;99.90;;;;;;5029210;28;20041;-75
2021/12/25 00:24:20;;;;;;;13.23;7.10;;;11.40;99.90;;;;;;5029960;28;20044;-75
2021/12/25 00:30:39;;;;;;;13.77;6.60;;;11.40;99.90;;;;;;5029938;28;20041;-75
2021/12/25 00:36:47;;;;;;;25.60;8.77;;;11.30;99.90;;;;;;5030369;28;20052;-74
2021/12/25 00:39:51;;;;;;;14.73;7.30;;;11.30;99.90;;;;;;5028521;28;20068;-76
2021/12/25 00:42:55;;;;;;;13.80;7.05;;;11.30;99.90;;;;;;5029079;28;20048;-76
2021/12/25 00:46:00;;;;;;;18.55;8.68;;;11.30;99.90;;;;;;5029725;28;20040;-76
2021/12/25 00:49:04;;;;;;;21.15;7.30;;;11.20;99.90;;;;;;5029713;28;20041;-75
2021/12/25 00:52:08;;;;;;;18.52;8.88;;;11.20;99.90;;;;;;5030043;28;20359;-76
2021/12/25 00:55:12;;;;;;;22.25;9.27;;;11.20;99.90;;;;;;5029825;28;20515;-76
2021/12/25 00:58:17;;;;;;;19.33;8.00;;;11.20;99.90;;;;;;5028305;28;20060;-76
2021/12/25 01:01:21;;;;;;;19.25;9.27;;;11.20;99.90;;;;;;5029845;28;20049;-75
2021/12/25 01:04:26;;;;;;;18.60;8.52;;;11.20;99.90;;;;;;5029859;28;20040;-75
2021/12/25 01:07:29;;;;;;;16.10;8.18;;;11.30;99.90;;;;;;5029843;28;20056;-76
2021/12/25 01:10:34;;;;;;;17.08;8.73;;;11.30;99.90;;;;;;5029305;28;20064;-76
2021/12/25 01:13:45;;;;;;;22.00;10.82;;;11.30;99.90;;;;;;5029034;28;20044;-76
2021/12/25 01:36:38;;;;;;;36.92;12.68;;;11.40;99.90;;;;;;5033085;28;20052;-75
2021/12/25 01:51:11;;;;;;;33.92;12.25;;;11.40;99.90;;;;;;4971499;28;20046;-75
2021/12/25 01:54:15;;;;;;;29.13;11.45;;;11.50;99.90;;;;;;4971363;28;20050;-74
2021/12/25 01:57:21;;;;;;;24.40;10.85;;;11.50;99.90;;;;;;5032593;28;20412;-74
2021/12/25 02:00:33;;;;;;;24.88;10.43;;;11.60;99.90;;;;;;5031876;28;20262;-74
2021/12/25 02:03:38;;;;;;;21.52;9.90;;;11.50;99.90;;;;;;5031435;28;20040;-75
2021/12/25 02:06:42;;;;;;;18.70;8.40;;;11.50;99.90;;;;;;5032109;28;20495;-76
2021/12/25 02:09:48;;;;;;;23.65;10.52;;;11.50;99.90;;;;;;5030995;28;20376;-76
2021/12/25 02:12:52;;;;;;;22.05;11.00;;;11.50;99.90;;;;;;5031243;28;20044;-76
2021/12/25 02:15:59;;;;;;;19.08;10.38;;;11.50;99.90;;;;;;5031430;28;20431;-76
2021/12/25 02:19:11;;;;;;;22.90;9.85;;;11.60;99.90;;;;;;5031107;28;20048;-76
2021/12/25 02:22:24;;;;;;;23.70;11.00;;;11.50;99.90;;;;;;5031084;28;20503;-76
2021/12/25 02:25:32;;;;;;;22.45;13.25;;;11.50;99.90;;;;;;5030906;28;20048;-75
2021/12/25 02:28:37;;;;;;;26.20;11.63;;;11.60;99.90;;;;;;5030880;28;20048;-75
2021/12/25 02:31:41;;;;;;;19.02;11.20;;;11.50;99.90;;;;;;5031023;28;20045;-75
2021/12/25 02:34:44;;;;;;;27.80;11.15;;;11.60;99.90;;;;;;5030939;28;20044;-75
2021/12/25 02:37:48;;;;;;;17.85;8.77;;;11.60;99.90;;;;;;5031593;28;20052;-75
2021/12/25 02:40:53;;;;;;;22.10;10.15;;;11.60;99.90;;;;;;5030895;28;20048;-75
2021/12/25 02:43:58;;;;;;;24.65;10.00;;;11.60;99.90;;;;;;5030335;28;20052;-75
2021/12/25 02:47:19;;;;;;;29.00;10.95;;;11.60;99.90;;;;;;5031091;28;20052;-75
2021/12/25 02:50:30;;;;;;;22.67;10.45;;;11.60;99.90;;;;;;5030760;28;20036;-74
2021/12/25 02:53:35;;;;;;;21.48;10.02;;;11.60;99.90;;;;;;5031977;28;20044;-74
2021/12/25 02:56:40;;;;;;;22.17;10.02;;;11.60;99.90;;;;;;5031170;28;20056;-75
2021/12/25 02:59:44;;;;;;;25.63;10.23;;;11.60;99.90;;;;;;5030689;28;20041;-74
2021/12/25 03:02:49;;;;;;;28.25;11.10;;;11.60;99.90;;;;;;5030765;28;20064;-75
2021/12/25 03:05:53;;;;;;;22.58;10.23;;;11.60;99.90;;;;;;5031458;28;20403;-76
2021/12/25 03:08:57;;;;;;;23.30;10.63;;;11.60;99.90;;;;;;5030228;28;20044;-75
2021/12/25 03:12:04;;;;;;;22.55;10.30;;;11.70;99.90;;;;;;5031243;28;20080;-75
2021/12/25 03:15:15;;;;;;;24.00;10.75;;;11.70;99.90;;;;;;5031394;28;20049;-75
2021/12/25 03:18:23;;;;;;;24.35;10.55;;;11.70;99.90;;;;;;5030857;28;20130;-75
2021/12/25 03:21:27;;;;;;;15.68;9.57;;;11.70;99.90;;;;;;5031036;28;20044;-75
2021/12/25 03:24:31;;;;;;;26.77;10.48;;;11.70;99.90;;;;;;5030142;28;20044;-75
2021/12/25 03:27:38;;;;;;;22.42;10.50;;;11.70;99.90;;;;;;5030116;28;20048;-75
2021/12/25 03:30:43;;;;;;;26.02;9.75;;;11.70;99.90;;;;;;5029876;28;20041;-75
2021/12/25 03:33:50;;;;;;;24.77;9.32;;;11.70;99.90;;;;;;5030274;28;20432;-75
2021/12/25 03:36:54;;;;;;;17.27;8.65;;;11.70;99.90;;;;;;5029821;28;20492;-76
2021/12/25 03:39:58;;;;;;;16.67;8.52;;;11.70;99.90;;;;;;5029210;28;20044;-75
2021/12/25 03:43:03;;;;;;;17.45;8.43;;;11.70;99.90;;;;;;5030779;28;20048;-75
2021/12/25 03:46:10;;;;;;;15.55;8.07;;;11.70;99.90;;;;;;5029826;28;20057;-75
2021/12/25 03:49:26;;;;;;;13.63;8.00;;;11.80;99.90;;;;;;5029624;28;20040;-76
2021/12/25 03:59:16;;;;;;;13.65;6.80;;;11.80;99.90;;;;;;5030102;28;20414;-75
2021/12/25 04:02:26;;;;;;;16.45;7.32;;;11.80;99.90;;;;;;5029604;28;20041;-75
2021/12/25 04:05:33;;;;;;;19.98;7.68;;;11.80;99.90;;;;;;5030262;28;20064;-74
2021/12/25 04:08:43;;;;;;;16.50;7.00;;;11.80;99.90;;;;;;5029939;28;20056;-75
2021/12/25 04:11:48;;;;;;;14.93;7.07;;;11.90;99.90;;;;;;5029573;28;20057;-75
2021/12/25 04:14:52;;;;;;;12.57;7.35;;;11.90;99.90;;;;;;5029467;28;20357;-74
2021/12/25 04:17:56;;;;;;;10.60;6.65;;;11.90;99.90;;;;;;5029382;28;20052;-76
2021/12/25 04:21:01;;;;;;;9.02;5.38;;;11.90;99.90;;;;;;5029251;28;20535;-75
2021/12/25 04:24:05;;;;;;;10.52;5.97;;;11.90;99.90;;;;;;5030173;28;20048;-75
2021/12/25 04:27:13;;;;;;;10.02;5.55;;;11.90;99.90;;;;;;5029340;28;20040;-75
2021/12/25 05:04:21;;;;;;;5.70;3.83;;;11.90;99.90;;;;;;5028721;28;20048;-75
2021/12/25 05:07:44;;;;;;;6.68;3.95;;;12.00;99.90;;;;;;5030287;28;20048;-74
2021/12/25 05:10:48;;;;;;;7.50;3.72;;;12.00;99.90;;;;;;5033495;28;20036;-75
2021/12/25 05:13:52;;;;;;;5.43;3.88;;;12.00;99.90;;;;;;5032809;28;20040;-75
2021/12/25 05:17:02;;;;;;;6.90;3.60;;;12.00;99.90;;;;;;5032698;28;20049;-75
2021/12/25 05:20:08;;;;;;;12.35;4.28;;;12.00;99.90;;;;;;5032131;28;20401;-74
2021/12/25 05:23:12;;;;;;;10.55;6.20;;;12.00;99.90;;;;;;5032437;28;20041;-75
2021/12/25 05:26:17;;;;;;;8.50;4.97;;;12.00;99.90;;;;;;5032604;28;20499;-74
2021/12/25 05:29:24;;;;;;;11.32;5.35;;;12.00;99.90;;;;;;5032017;28;20044;-75
2021/12/25 05:32:28;;;;;;;7.93;5.60;;;11.90;99.90;;;;;;5032735;28;20053;-75
2021/12/25 05:36:03;;;;;;;12.85;7.35;;;11.90;99.90;;;;;;5032186;28;20048;-75
2021/12/25 05:39:21;;;;;;;10.93;6.30;;;11.80;99.90;;;;;;5032096;28;20048;-75
2021/12/25 05:42:25;;;;;;;15.18;7.45;;;11.80;99.90;;;;;;5032978;28;20048;-75
2021/12/25 05:45:31;;;;;;;12.15;6.53;;;11.80;99.90;;;;;;5032284;28;20499;-75
2021/12/25 05:48:50;;;;;;;13.68;6.55;;;11.90;99.90;;;;;;5031735;28;20048;-75
2021/12/25 05:52:26;;;;;;;15.77;7.18;;;11.90;99.90;;;;;;5032697;28;20053;-75
2021/12/25 05:55:44;;;;;;;14.23;7.22;;;12.00;99.90;;;;;;5032466;28;20484;-75
2021/12/25 05:59:23;;;;;;;18.27;7.03;;;11.90;99.90;;;;;;5011375;28;20041;-75
2021/12/25 06:02:52;;;;;;;15.15;6.82;;;11.90;99.90;;;;;;5027816;28;20044;-75
2021/12/25 06:05:59;;;;;;;15.70;6.70;;;11.90;99.90;;;;;;5032258;28;20044;-75
2021/12/25 06:09:07;;;;;;;14.68;6.68;;;11.90;99.90;;;;;;5032810;28;20400;-75
2021/12/25 06:12:14;;;;;;;12.90;7.32;;;11.90;99.90;;;;;;5032860;28;20049;-75
2021/12/25 06:15:20;;;;;;;14.55;6.15;;;12.00;99.90;;;;;;5031717;28;20052;-76
2021/12/25 06:18:35;;;;;;;13.90;7.15;;;12.00;99.90;;;;;;5030898;28;20526;-76
2021/12/25 06:21:49;;;;;;;21.55;6.95;;;12.00;99.90;;;;;;5031415;28;20045;-76
2021/12/25 06:25:23;;;;;;;18.08;6.75;;;12.00;99.90;;;;;;5031434;28;20244;-75
2021/12/25 06:28:32;;;;;;;12.68;6.57;;;12.00;99.90;;;;;;5031127;28;20049;-76
2021/12/25 06:32:00;;;;;;;12.05;6.80;;;12.00;99.90;;;;;;5032193;28;20041;-76
2021/12/25 06:35:21;;;;;;;18.67;7.60;;;12.00;99.90;;;;;;5032160;28;20049;-76
2021/12/25 06:38:44;;;;;;;15.85;7.18;;;12.00;99.90;;;;;;5031021;28;20104;-76
2021/12/25 06:42:18;;;;;;;17.95;7.50;;;11.90;99.90;;;;;;5031940;28;20056;-75
2021/12/25 06:45:21;;;;;;;20.08;7.43;;;11.90;99.90;;;;;;5030895;28;20048;-76
2021/12/25 06:48:26;;;;;;;16.55;7.78;;;11.90;99.90;;;;;;5031075;28;20506;-76
2021/12/25 06:51:51;;;;;;;17.55;8.13;;;11.90;99.90;;;;;;5031988;28;20045;-76
2021/12/25 06:55:13;;;;;;;13.98;6.95;;;11.90;99.90;;;;;;5031609;28;20048;-75
2021/12/25 06:58:41;;;;;;;12.05;7.43;;;11.90;99.90;;;;;;5032907;28;20048;-76
2021/12/25 07:01:45;;;;;;;13.35;7.63;;;11.90;99.90;;;;;;5030546;28;20053;-76
2021/12/25 07:05:09;;;;;;;12.90;7.07;;;11.90;99.90;;;;;;5031247;28;20045;-77
2021/12/25 07:08:32;;;;;;;15.23;7.22;;;11.90;99.90;;;;;;5030891;28;20392;-76
2021/12/25 07:12:11;;;;;;;15.57;7.07;;;11.90;99.90;;;;;;5009822;28;20049;-76
2021/12/25 07:15:30;;;;;;;15.43;6.50;;;11.80;99.90;;;;;;5030272;28;20036;-75
2021/12/25 07:18:45;;;;;;;19.23;8.43;;;11.70;99.90;;;;;;5030102;28;20052;-75
2021/12/25 07:22:08;;;;;;;14.23;7.32;;;11.70;99.90;;;;;;5030613;28;20044;-75
2021/12/25 07:25:31;;;;;;;;;;;11.70;99.90;;;;;;5031751;28;20052;-74
2021/12/25 07:28:57;;;;;;;14.30;6.95;;;11.60;99.90;;;;;;5014194;28;19920;-76
2021/12/25 07:32:01;;;;;;;18.48;7.65;;;11.60;99.90;;;;;;5030348;28;20048;-75
2021/12/25 07:35:06;;;;;;;16.90;7.70;;;11.60;99.90;;;;;;5030919;28;20057;-75
2021/12/25 07:38:10;;;;;;;18.27;7.85;;;11.50;99.90;;;;;;5030540;28;20041;-75
2021/12/25 07:41:14;;;;;;;14.18;6.68;;;11.50;99.90;;;;;;5029709;28;20048;-75
2021/12/25 07:44:18;;;;;;;14.63;6.65;;;11.50;99.90;;;;;;5030742;28;20052;-75
2021/12/25 07:47:27;;;;;;;11.85;6.25;;;11.60;99.90;;;;;;5029650;28;20507;-75
2021/12/25 07:50:33;;;;;;;13.00;5.70;;;11.60;99.90;;;;;;5030559;28;20045;-73
2021/12/25 07:53:41;;;;;;;10.13;6.30;;;11.60;99.90;;;;;;5030554;28;20044;-75
2021/12/25 07:56:45;;;;;;;11.30;6.28;;;11.60;99.90;;;;;;5030726;28;20060;-75
2021/12/25 07:59:49;;;;;;;16.85;6.55;;;11.60;99.90;;;;;;5030390;28;20052;-75
2021/12/25 08:02:54;;;;;;;14.60;6.47;;;11.60;99.90;;;;;;5030470;28;20495;-74
2021/12/25 08:05:58;;;;;;;15.02;6.78;;;11.60;99.90;;;;;;5030167;28;20120;-75
2021/12/25 08:09:04;;;;;;;10.48;6.68;;;11.60;99.90;;;;;;5029945;28;20049;-76
2021/12/25 08:12:09;;;;;;;13.55;6.95;;;11.50;99.90;;;;;;5030210;28;20049;-76
2021/12/25 08:15:14;;;;;;;13.93;7.30;;;11.50;99.90;;;;;;5029158;28;20522;-76
2021/12/25 08:18:19;;;;;;;14.63;7.50;;;11.50;99.90;;;;;;5029771;28;20056;-76
2021/12/25 08:21:41;;;;;;;20.42;8.40;;;11.50;99.90;;;;;;5030286;28;20048;-75
2021/12/25 08:25:06;;;;;;;15.60;7.90;;;11.50;99.90;;;;;;5030203;28;20060;-75
2021/12/25 08:28:29;;;;;;;14.70;7.32;;;11.50;99.90;;;;;;5029938;28;20537;-76
2021/12/25 08:31:51;;;;;;;18.73;7.05;;;11.50;99.90;;;;;;5029776;28;20040;-76
2021/12/25 08:35:29;;;;;;;16.48;7.85;;;11.50;99.90;;;;;;5030282;28;20044;-76
2021/12/25 08:38:33;;;;;;;14.00;6.35;;;11.40;99.90;;;;;;5030287;28;20045;-76
2021/12/25 08:41:38;;;;;;;15.10;7.30;;;11.40;99.90;;;;;;5030035;28;20629;-76
2021/12/25 08:45:04;;;;;;;9.77;6.82;;;11.50;99.90;;;;;;5034226;28;20052;-76
2021/12/25 08:48:15;;;;;;;17.08;7.60;;;11.40;99.90;;;;;;5033677;28;20403;-76
2021/12/25 08:51:19;;;;;;;20.13;7.10;;;11.40;99.90;;;;;;5033857;28;20047;-76
2021/12/25 08:54:23;;;;;;;15.18;7.15;;;11.40;99.90;;;;;;5034203;28;20046;-76
2021/12/25 08:57:28;;;;;;;15.32;6.60;;;11.40;99.90;;;;;;5033707;28;20044;-76
2021/12/25 09:00:32;;;;;;;11.30;6.35;;;11.40;99.90;;;;;;5033891;28;20061;-76
2021/12/25 09:03:36;;;;;;;15.43;6.28;;;11.40;99.90;;;;;;5033656;28;20045;-76
2021/12/25 09:06:40;;;;;;;19.75;7.80;;;11.40;99.90;;;;;;5033525;28;20404;-76
2021/12/25 09:09:45;;;;;;;15.15;7.13;;;11.40;99.90;;;;;;5033530;28;20044;-75
2021/12/25 09:12:50;;;;;;;14.55;6.43;;;11.40;99.90;;;;;;5033280;28;20048;-76
2021/12/25 09:15:54;;;;;;;18.10;7.07;;;11.40;99.90;;;;;;5033967;28;20040;-76
2021/12/25 09:18:58;;;;;;;16.25;6.65;;;11.50;99.90;;;;;;5032879;28;20047;-76
2021/12/25 09:22:03;;;;;;;14.65;8.02;;;11.50;99.90;;;;;;5033706;28;20048;-76
2021/12/25 09:25:07;;;;;;;13.63;7.85;;;11.50;99.90;;;;;;5033107;28;20061;-76
2021/12/25 09:28:11;;;;;;;14.38;6.63;;;11.50;99.90;;;;;;5032887;28;20052;-76
2021/12/25 09:31:15;;;;;;;17.08;8.48;;;11.50;99.90;;;;;;5033032;28;20040;-76
2021/12/25 09:34:20;;;;;;;19.33;10.80;;;11.50;99.90;;;;;;5033380;28;20048;-76
2021/12/25 09:37:24;;;;;;;16.88;7.80;;;11.50;99.90;;;;;;5033209;28;20052;-76
2021/12/25 09:40:28;;;;;;;18.23;6.70;;;11.50;99.90;;;;;;5033170;28;20525;-76
2021/12/25 09:43:33;;;;;;;17.65;6.70;;;11.60;99.90;;;;;;5033419;28;20041;-76
2021/12/25 09:46:37;;;;;;;18.05;7.47;;;11.60;99.90;;;;;;5033105;28;20063;-76
2021/12/25 09:49:42;;;;;;;12.18;6.68;;;11.60;99.90;;;;;;5032579;28;20519;-76
2021/12/25 09:52:46;;;;;;;14.98;7.50;;;11.60;99.90;;;;;;5032146;28;20048;-76
2021/12/25 09:55:53;;;;;;;18.40;7.15;;;11.60;99.90;;;;;;5033213;28;20048;-76
2021/12/25 09:58:57;;;;;;;23.10;9.93;;;11.60;99.90;;;;;;5032320;28;20032;-76
2021/12/25 10:02:02;;;;;;;22.63;9.88;;;11.60;99.90;;;;;;5032680;28;20049;-76
2021/12/25 10:05:10;;;;;;;24.27;12.23;;;11.60;99.90;;;;;;5032494;28;20037;-76
2021/12/25 10:08:17;;;;;;;26.25;10.90;;;11.50;99.90;;;;;;5032177;28;20044;-76
2021/12/25 10:11:20;;;;;;;43.25;16.10;;;11.50;99.90;;;;;;5032675;28;20396;-76
2021/12/25 10:14:25;;;;;;;59.42;35.10;;;11.50;99.90;;;;;;5032478;28;20040;-75
2021/12/25 10:17:31;;;;;;;67.68;37.65;;;11.50;99.90;;;;;;5032371;28;20052;-75
2021/12/25 10:20:35;;;;;;;66.82;41.35;;;11.60;99.90;;;;;;5032382;28;20056;-75
2021/12/25 10:23:39;;;;;;;75.93;52.03;;;11.60;99.90;;;;;;5032040;28;20072;-75
2021/12/25 10:26:46;;;;;;;55.55;36.13;;;11.60;99.90;;;;;;5032186;28;20498;-75
2021/12/25 10:29:59;;;;;;;49.38;34.55;;;11.60;99.90;;;;;;5031020;28;20408;-74
2021/12/25 10:33:03;;;;;;;67.03;42.05;;;11.60;99.90;;;;;;5032073;28;20499;-75
2021/12/25 10:36:21;;;;;;;64.55;42.45;;;11.60;99.90;;;;;;5031853;28;20052;-74
2021/12/25 10:39:29;;;;;;;44.75;31.67;;;11.60;99.90;;;;;;5031693;28;20040;-74
2021/12/25 10:42:34;;;;;;;36.88;25.58;;;11.60;99.90;;;;;;5031739;28;20388;-74
2021/12/25 10:45:38;;;;;;;36.67;24.60;;;11.60;99.90;;;;;;5031907;28;20048;-74
2021/12/25 10:48:42;;;;;;;35.95;21.23;;;11.70;99.90;;;;;;5031587;28;20047;-74
2021/12/25 10:51:47;;;;;;;32.85;22.40;;;11.70;99.90;;;;;;5031903;28;20298;-74
2021/12/25 10:54:53;;;;;;;33.88;19.17;;;11.60;99.90;;;;;;5031606;28;20045;-74
2021/12/25 10:57:59;;;;;;;52.42;30.85;;;11.60;99.90;;;;;;5031516;28;20518;-73
2021/12/25 11:01:06;;;;;;;33.28;20.63;;;11.50;99.90;;;;;;5031773;28;20049;-73
2021/12/25 11:04:36;;;;;;;55.05;32.85;;;11.40;99.90;;;;;;5031648;28;20472;-74
2021/12/25 11:07:40;;;;;;;57.65;32.80;;;11.40;99.90;;;;;;5031369;28;20048;-73
2021/12/25 11:10:53;;;;;;;64.90;37.60;;;11.50;99.90;;;;;;5031370;28;20040;-74
2021/12/25 11:14:00;;;;;;;89.20;45.00;;;11.50;99.90;;;;;;5031415;28;20384;-74
2021/12/25 11:17:26;;;;;;;52.78;29.73;;;11.50;99.90;;;;;;5031867;28;20053;-74
2021/12/25 11:20:37;;;;;;;58.42;32.83;;;11.40;99.90;;;;;;5031410;28;20527;-74
2021/12/25 11:23:43;;;;;;;91.93;44.63;;;11.40;99.90;;;;;;5030665;28;20057;-74
2021/12/25 11:26:56;;;;;;;88.80;38.65;;;11.50;99.90;;;;;;5030406;28;20040;-74
2021/12/25 11:30:01;;;;;;;63.67;33.95;;;11.50;99.90;;;;;;5030666;28;20040;-74
2021/12/25 11:33:06;;;;;;;68.72;27.35;;;11.50;99.90;;;;;;5031175;28;20504;-74
2021/12/25 11:36:10;;;;;;;47.97;18.58;;;11.60;99.90;;;;;;5031019;28;20045;-74
2021/12/25 11:39:22;;;;;;;33.72;14.45;;;11.60;99.90;;;;;;5030460;28;20068;-74
2021/12/25 11:42:29;;;;;;;37.20;15.77;;;11.60;99.90;;;;;;5030725;28;20499;-74
2021/12/25 11:45:37;;;;;;;40.72;15.80;;;11.70;99.90;;;;;;5030018;28;20043;-74
2021/12/25 11:48:42;;;;;;;41.30;15.75;;;11.70;99.90;;;;;;5028648;28;20048;-75
2021/12/25 11:51:47;;;;;;;31.02;15.00;;;11.60;99.90;;;;;;5030576;28;20036;-75
2021/12/25 11:58:35;;;;;;;34.28;14.65;;;11.60;99.90;;;;;;5030100;28;20049;-75
2021/12/25 12:01:42;;;;;;;26.90;10.88;;;11.60;99.90;;;;;;5030346;28;20040;-74
2021/12/25 12:05:06;;;;;;;29.05;11.25;;;11.60;99.90;;;;;;5030291;28;20064;-75
2021/12/25 12:08:12;;;;;;;26.42;12.00;;;11.60;99.90;;;;;;5029899;28;20076;-75
2021/12/25 12:11:37;;;;;;;33.20;12.30;;;11.60;99.90;;;;;;5030565;28;20041;-75
2021/12/25 12:15:12;;;;;;;45.00;19.08;;;11.60;99.90;;;;;;5030190;28;20408;-75
2021/12/25 12:18:49;;;;;;;23.75;11.77;;;11.50;99.90;;;;;;5026732;28;20056;-75
2021/12/25 12:21:53;;;;;;;37.33;15.15;;;11.60;99.90;;;;;;5030173;28;20203;-75
2021/12/25 12:28:10;;;;;;;26.10;10.20;;;11.60;99.90;;;;;;5029573;28;20092;-74
2021/12/25 12:31:32;;;;;;;74.68;36.95;;;11.50;99.90;;;;;;5029631;28;20044;-74
2021/12/25 12:34:40;;;;;;;27.60;10.38;;;11.50;99.90;;;;;;5029867;28;20396;-75
2021/12/25 12:37:46;;;;;;;31.45;12.85;;;11.50;99.90;;;;;;5029824;28;20037;-74
2021/12/25 12:41:14;;;;;;;26.77;10.32;;;11.50;99.90;;;;;;5029794;28;20048;-74
2021/12/25 12:44:30;;;;;;;31.27;12.65;;;11.50;99.90;;;;;;5029649;28;20056;-75
2021/12/25 12:47:34;;;;;;;37.28;14.93;;;11.50;99.90;;;;;;5029680;28;20044;-73
2021/12/25 12:50:42;;;;;;;23.90;9.93;;;11.50;99.90;;;;;;5029758;28;20045;-74
2021/12/25 12:53:48;;;;;;;18.23;8.70;;;11.40;99.90;;;;;;5029793;28;20048;-74
2021/12/25 12:57:04;;;;;;;29.10;15.65;;;11.50;99.90;;;;;;5029959;28;20045;-75
2021/12/25 13:00:25;;;;;;;28.85;15.15;;;11.50;99.90;;;;;;5029704;28;20049;-75
2021/12/25 13:03:30;;;;;;;31.20;16.02;;;11.50;99.90;;;;;;5029778;28;20048;-75
2021/12/25 13:06:34;;;;;;;44.38;19.98;;;11.50;99.90;;;;;;5029894;28;20404;-75
2021/12/25 13:09:43;;;;;;;20.35;8.32;;;11.50;99.90;;;;;;5029578;28;20040;-74
2021/12/25 13:12:49;;;;;;;18.65;7.60;;;11.50;99.90;;;;;;5029807;28;20040;-74
2021/12/25 13:16:03;;;;;;;24.70;12.93;;;11.50;99.90;;;;;;5029500;28;20113;-75
2021/12/25 13:19:07;;;;;;;18.85;7.63;;;11.50;99.90;;;;;;5029292;28;20048;-75
2021/12/25 13:22:12;;;;;;;28.02;14.68;;;11.60;99.90;;;;;;5029726;28;20052;-75
2021/12/25 13:25:19;;;;;;;20.10;8.07;;;11.60;99.90;;;;;;5029315;28;20049;-74
2021/12/25 13:28:26;;;;;;;23.77;11.07;;;11.60;99.90;;;;;;5028936;28;20040;-75
2021/12/25 13:31:33;;;;;;;19.83;6.93;;;11.50;99.90;;;;;;5033268;28;20052;-74
2021/12/25 13:34:39;;;;;;;14.05;6.97;;;11.50;99.90;;;;;;5032964;28;20067;-74
2021/12/25 13:37:44;;;;;;;18.02;7.10;;;11.50;99.90;;;;;;5032860;28;20064;-74
2021/12/25 13:40:49;;;;;;;18.83;6.63;;;11.60;99.90;;;;;;5032976;28;20535;-75
2021/12/25 13:44:19;;;;;;;22.10;11.15;;;11.60;99.90;;;;;;5032846;28;20045;-75
2021/12/25 13:47:26;;;;;;;19.45;10.07;;;11.60;99.90;;;;;;5032567;28;20052;-75
2021/12/25 13:50:32;;;;;;;30.27;12.65;;;11.60;99.90;;;;;;5032695;28;20049;-75
2021/12/25 13:53:40;;;;;;;14.35;6.10;;;11.50;99.90;;;;;;5032600;28;20052;-73
2021/12/25 13:56:50;;;;;;;16.15;6.18;;;11.60;99.90;;;;;;5032419;28;20053;-75
2021/12/25 13:59:57;;;;;;;23.05;12.57;;;11.60;99.90;;;;;;5032137;28;20040;-74
2021/12/25 14:03:07;;;;;;;21.15;10.45;;;11.50;99.90;;;;;;5032629;28;20048;-74
2021/12/25 14:06:11;;;;;;;21.08;8.55;;;11.50;99.90;;;;;;5032488;28;20036;-74
2021/12/25 14:09:15;;;;;;;14.98;8.68;;;11.50;99.90;;;;;;5032079;28;20045;-75
2021/12/25 14:12:21;;;;;;;32.88;12.88;;;11.50;99.90;;;;;;5032646;28;20048;-74
2021/12/25 14:15:28;;;;;;;19.80;8.57;;;11.50;99.90;;;;;;5032601;28;20033;-74
2021/12/25 14:18:36;;;;;;;21.95;9.93;;;11.50;99.90;;;;;;5031669;28;20056;-74
2021/12/25 14:21:55;;;;;;;27.35;9.52;;;11.50;99.90;;;;;;5032284;28;20044;-73
2021/12/25 14:24:59;;;;;;;24.40;8.45;;;11.50;99.90;;;;;;5032035;28;20056;-74
2021/12/25 14:28:03;;;;;;;33.10;11.77;;;11.50;99.90;;;;;;5030691;28;20048;-73
2021/12/25 14:31:13;;;;;;;54.42;16.63;;;11.50;99.90;;;;;;5032039;28;20393;-74
2021/12/25 14:34:18;;;;;;;27.42;10.00;;;11.50;99.90;;;;;;5032192;28;20048;-74
2021/12/25 14:37:33;;;;;;;30.17;9.27;;;11.50;99.90;;;;;;5031921;28;20491;-74
2021/12/25 14:40:49;;;;;;;26.67;8.48;;;11.50;99.90;;;;;;5030955;28;20056;-73
2021/12/25 14:43:54;;;;;;;34.15;12.13;;;11.50;99.90;;;;;;5031820;28;20040;-74
2021/12/25 14:47:12;;;;;;;37.47;17.25;;;11.50;99.90;;;;;;5031955;28;20041;-73
2021/12/25 14:50:25;;;;;;;29.00;13.13;;;11.60;99.90;;;;;;5031514;28;20400;-74
2021/12/25 14:53:29;;;;;;;46.60;17.02;;;11.60;99.90;;;;;;5031975;28;20044;-73
2021/12/25 14:56:43;;;;;;;46.67;14.80;;;11.60;99.90;;;;;;5032150;28;20041;-74
2021/12/25 14:59:47;;;;;;;28.17;11.70;;;11.60;99.90;;;;;;5030450;28;20044;-73
2021/12/25 15:02:50;;;;;;;44.30;12.60;;;11.60;99.90;;;;;;5031633;28;20052;-73
2021/12/25 15:05:56;;;;;;;27.98;10.77;;;11.60;99.90;;;;;;5031612;28;20204;-73
2021/12/25 15:09:10;;;;;;;41.33;13.88;;;11.60;99.90;;;;;;5031007;28;20044;-73
2021/12/25 15:12:17;;;;;;;28.05;11.65;;;11.60;99.90;;;;;;5031526;28;20036;-73
2021/12/25 15:15:23;;;;;;;33.67;11.57;;;11.60;99.90;;;;;;5031465;28;20105;-73
2021/12/25 15:18:36;;;;;;;37.85;12.93;;;11.60;99.90;;;;;;5030835;28;20052;-74
2021/12/25 15:21:45;;;;;;;29.50;12.35;;;11.60;99.90;;;;;;5031175;28;20048;-74
2021/12/25 15:24:51;;;;;;;28.42;9.80;;;11.60;99.90;;;;;;5031037;28;20044;-73
2021/12/25 15:27:57;;;;;;;21.40;10.35;;;11.60;99.90;;;;;;5031102;28;20070;-73
2021/12/25 15:31:01;;;;;;;27.48;11.07;;;11.60;99.90;;;;;;5030921;28;20040;-74
2021/12/25 15:34:09;;;;;;;25.60;10.68;;;11.60;99.90;;;;;;5030827;28;20044;-74
2021/12/25 15:37:41;;;;;;;25.33;10.80;;;11.60;99.90;;;;;;5030845;28;20041;-73
2021/12/25 15:40:49;;;;;;;19.60;10.40;;;11.60;99.90;;;;;;5031072;28;20048;-73
2021/12/25 15:43:54;;;;;;;29.08;11.80;;;11.60;99.90;;;;;;5030900;28;20315;-73
2021/12/25 15:46:58;;;;;;;26.80;11.13;;;11.60;99.90;;;;;;5030917;28;20060;-73
2021/12/25 15:50:04;;;;;;;20.83;10.77;;;11.60;99.90;;;;;;5030285;28;20044;-73
2021/12/25 15:53:08;;;;;;;23.33;11.80;;;11.50;99.90;;;;;;5030355;28;20040;-74
2021/12/25 15:56:12;;;;;;;28.45;10.35;;;11.50;99.90;;;;;;5030684;28;20044;-73
2021/12/25 15:59:16;;;;;;;24.58;9.45;;;11.60;99.90;;;;;;5030206;28;20056;-73
2021/12/25 16:02:27;;;;;;;23.90;9.85;;;11.60;99.90;;;;;;5030671;28;20048;-73
2021/12/25 16:05:31;;;;;;;26.77;10.63;;;11.70;99.90;;;;;;5030649;28;20514;-73
2021/12/25 16:08:36;;;;;;;30.08;12.85;;;11.70;99.90;;;;;;5030175;28;20495;-73
2021/12/25 16:11:40;;;;;;;40.88;15.35;;;11.70;99.90;;;;;;5030553;28;20048;-73
2021/12/25 16:14:45;;;;;;;26.90;11.13;;;11.70;99.90;;;;;;5029846;28;20045;-73
2021/12/25 16:17:48;;;;;;;24.60;10.85;;;11.70;99.90;;;;;;5030459;28;20060;-73
2021/12/25 16:20:54;;;;;;;27.67;11.48;;;11.60;99.90;;;;;;5030463;28;20040;-73
2021/12/25 16:24:00;;;;;;;31.10;10.20;;;11.60;99.90;;;;;;5030331;28;20084;-73
2021/12/25 16:27:04;;;;;;;32.10;14.05;;;11.60;99.90;;;;;;5030409;28;20036;-74
2021/12/25 16:30:12;;;;;;;25.23;11.75;;;11.60;99.90;;;;;;5030165;28;20056;-74
2021/12/25 16:33:17;;;;;;;36.17;12.68;;;11.70;99.90;;;;;;5030772;28;20041;-73
2021/12/25 16:36:21;;;;;;;25.63;11.93;;;11.60;99.90;;;;;;5030240;28;20392;-73
2021/12/25 16:39:25;;;;;;;33.70;12.68;;;11.60;99.90;;;;;;5030015;28;20052;-74
2021/12/25 16:42:29;;;;;;;24.70;12.10;;;11.70;99.90;;;;;;5030140;28;20053;-74
2021/12/25 16:45:35;;;;;;;28.60;12.13;;;11.70;99.90;;;;;;5030348;28;20404;-73
2021/12/25 16:48:43;;;;;;;25.58;12.38;;;11.70;99.90;;;;;;5029417;28;20392;-73
2021/12/25 16:51:47;;;;;;;32.25;10.57;;;11.70;99.90;;;;;;5030059;28;20040;-73
2021/12/25 16:54:52;;;;;;;34.53;12.32;;;11.70;99.90;;;;;;5030082;28;20033;-73
2021/12/25 16:58:14;;;;;;;;;;;11.70;99.90;;;;;;5030028;28;20044;-73
2021/12/25 17:01:18;;;;;;;24.00;10.73;;;11.80;99.90;;;;;;5029703;28;19924;-73
2021/12/25 17:04:24;;;;;;;31.75;10.57;;;11.80;99.90;;;;;;5032003;28;20049;-73
2021/12/25 17:07:29;;;;;;;32.03;10.30;;;11.80;99.90;;;;;;5033536;28;20419;-73
2021/12/25 17:10:34;;;;;;;24.58;10.15;;;11.80;99.90;;;;;;5034324;28;20060;-74
2021/12/25 17:13:39;;;;;;;21.23;9.00;;;11.70;99.90;;;;;;5033983;28;20037;-74
2021/12/25 17:16:43;;;;;;;30.48;10.98;;;11.70;99.90;;;;;;5033277;28;20048;-74
2021/12/25 17:19:49;;;;;;;40.33;11.93;;;11.70;99.90;;;;;;5033610;28;20052;-74
2021/12/25 17:22:54;;;;;;;31.42;11.13;;;11.70;99.90;;;;;;5033677;28;20044;-75
2021/12/25 17:25:59;;;;;;;29.83;11.68;;;11.70;99.90;;;;;;5033610;28;20052;-74
2021/12/25 17:29:03;;;;;;;37.05;13.98;;;11.70;99.90;;;;;;5032958;28;20499;-74
2021/12/25 17:32:07;;;;;;;29.73;12.90;;;11.60;99.90;;;;;;5033369;28;20040;-74